Time;durP1;ratioP1;P1;durP2;ratioP2;P2;SDS_P1;SDS_P2;PMS_P1;PMS_P2;Temp;Humidity;BMP_temperature;BMP_pressure;BME280_temperature;BME280_humidity;BME280_pressure;Samples;Min_cycle;Max_cycle;Signal;HPM_P1;HPM_P2
2023/12/26 00:02:17;;;;;;;18.30;4.00;;;;;;;5.75;95.13;99532.04;105491;1265;98091;-80
2023/12/26 00:05:05;;;;;;;15.00;3.90;;;;;;;5.77;95.16;99530.59;105645;1264;99503;-80
2023/12/26 00:07:50;;;;;;;19.60;4.80;;;;;;;5.78;95.46;99531.66;106392;1264;97893;-80
2023/12/26 00:10:36;;;;;;;14.80;3.70;;;;;;;5.79;95.43;99528.91;105876;1268;102181;-81
2023/12/26 00:13:21;;;;;;;15.60;3.60;;;;;;;5.79;95.41;99538.14;105906;1264;99105;-80
2023/12/26 00:16:07;;;;;;;11.00;3.80;;;;;;;5.78;95.60;99549.57;106080;1264;99043;-81
2023/12/26 00:18:53;;;;;;;22.70;6.10;;;;;;;5.78;95.90;99548.52;106416;1263;98102;-81
2023/12/26 00:22:03;;;;;;;12.20;4.90;;;;;;;5.78;95.99;99546.88;106341;1264;97972;-80
2023/12/26 00:24:49;;;;;;;18.50;5.20;;;;;;;5.78;96.14;99558.23;106430;1264;101590;-80
2023/12/26 00:27:37;;;;;;;12.70;5.10;;;;;;;5.77;96.20;99564.27;105877;1267;99121;-80
2023/12/26 00:30:23;;;;;;;15.40;4.70;;;;;;;5.76;96.10;99572.71;106141;1265;98601;-81
2023/12/26 00:33:09;;;;;;;16.20;5.10;;;;;;;5.75;96.23;99578.34;106213;1270;97890;-80
2023/12/26 00:35:56;;;;;;;15.20;4.30;;;;;;;5.75;96.20;99581.48;106242;1270;98960;-80
2023/12/26 00:38:42;;;;;;;13.60;3.80;;;;;;;5.75;96.37;99586.48;105988;1270;102621;-81
2023/12/26 00:41:29;;;;;;;16.00;4.00;;;;;;;5.74;96.59;99585.15;106371;1263;100174;-81
2023/12/26 00:44:15;;;;;;;12.10;4.40;;;;;;;5.73;96.49;99588.24;106429;1267;99377;-81
2023/12/26 00:47:00;;;;;;;15.50;4.00;;;;;;;5.72;96.61;99587.83;106111;1270;97843;-81
2023/12/26 00:49:46;;;;;;;18.90;5.00;;;;;;;5.72;96.66;99587.00;106323;1268;98439;-82
2023/12/26 00:52:32;;;;;;;15.80;4.40;;;;;;;5.72;96.51;99587.04;106571;1269;101934;-80
2023/12/26 00:55:17;;;;;;;16.50;3.90;;;;;;;5.71;96.54;99585.48;105886;1264;99167;-80
2023/12/26 00:58:05;;;;;;;17.10;4.80;;;;;;;5.71;96.51;99581.46;105973;1267;99028;-81
2023/12/26 01:00:51;;;;;;;11.30;3.70;;;;;;;5.71;96.41;99584.38;105921;1268;97989;-80
2023/12/26 01:03:36;;;;;;;12.30;3.80;;;;;;;5.72;96.36;99584.50;105817;1270;98071;-80
2023/12/26 01:06:21;;;;;;;14.70;4.30;;;;;;;5.72;96.50;99583.90;105674;1269;101389;-79
2023/12/26 01:09:06;;;;;;;10.20;3.70;;;;;;;5.73;96.69;99585.75;106422;1263;100607;-81
2023/12/26 01:11:52;;;;;;;14.50;4.80;;;;;;;5.73;96.80;99580.52;106278;1267;97959;-80
2023/12/26 01:14:40;;;;;;;15.20;3.60;;;;;;;5.73;96.96;99589.10;106355;1267;98461;-80
2023/12/26 01:17:25;;;;;;;12.10;3.90;;;;;;;5.74;96.97;99584.62;106403;1267;98436;-80
2023/12/26 01:20:11;;;;;;;13.90;4.00;;;;;;;5.75;97.30;99588.22;105870;1264;101463;-80
2023/12/26 01:22:57;;;;;;;11.60;4.10;;;;;;;5.76;97.83;99589.48;106340;1264;100515;-81
2023/12/26 01:25:43;;;;;;;14.70;4.90;;;;;;;5.77;97.90;99581.90;106287;1269;98353;-82
2023/12/26 01:28:29;;;;;;;14.50;4.10;;;;;;;5.79;98.19;99578.13;106146;1264;97816;-80
2023/12/26 01:31:14;;;;;;;18.90;4.10;;;;;;;5.81;98.28;99571.00;105531;1264;97953;-80
2023/12/26 01:34:00;;;;;;;12.50;3.90;;;;;;;5.82;98.32;99571.02;105448;1264;102727;-79
2023/12/26 01:36:46;;;;;;;8.20;3.50;;;;;;;5.83;98.48;99576.94;105857;1267;100141;-83
2023/12/26 01:39:32;;;;;;;13.90;4.10;;;;;;;5.83;98.79;99575.04;106394;1263;97975;-82
2023/12/26 01:42:17;;;;;;;14.00;5.30;;;;;;;5.84;99.17;99571.63;105610;1269;97972;-80
2023/12/26 01:45:04;;;;;;;18.90;5.70;;;;;;;5.84;99.61;99570.99;105649;1265;98448;-80
2023/12/26 01:47:55;;;;;;;15.60;5.20;;;;;;;5.86;100.00;99572.78;105329;1270;102728;-79
2023/12/26 01:50:41;;;;;;;16.40;5.90;;;;;;;5.87;100.00;99569.60;105581;1269;99339;-80
2023/12/26 01:53:27;;;;;;;14.80;6.60;;;;;;;5.89;100.00;99569.42;105669;1267;99183;-81
2023/12/26 01:56:16;;;;;;;19.10;6.90;;;;;;;5.90;100.00;99564.34;106378;1267;98004;-80
2023/12/26 01:59:02;;;;;;;17.80;7.80;;;;;;;5.93;100.00;99555.27;106482;1264;96531;-81
2023/12/26 02:01:49;;;;;;;20.40;8.60;;;;;;;5.96;100.00;99554.49;106214;1264;102130;-81
2023/12/26 02:04:35;;;;;;;16.30;6.80;;;;;;;5.97;100.00;99554.71;106232;1264;99315;-81
2023/12/26 02:07:20;;;;;;;16.60;6.00;;;;;;;5.99;100.00;99553.49;106206;1264;98508;-82
2023/12/26 02:10:06;;;;;;;15.30;5.30;;;;;;;6.01;100.00;99546.48;106076;1264;98065;-80
2023/12/26 02:12:51;;;;;;;8.80;4.30;;;;;;;6.02;100.00;99544.06;106159;1267;97979;-80
2023/12/26 02:15:37;;;;;;;10.70;4.40;;;;;;;6.03;100.00;99536.24;106378;1269;102588;-81
2023/12/26 02:18:24;;;;;;;15.00;4.60;;;;;;;6.05;100.00;99535.31;106213;1264;99262;-81
2023/12/26 02:21:11;;;;;;;10.10;4.30;;;;;;;6.05;100.00;99533.36;105870;1265;97950;-80
2023/12/26 02:23:56;;;;;;;14.10;5.80;;;;;;;6.06;100.00;99536.23;106271;1268;97909;-81
2023/12/26 02:26:43;;;;;;;14.30;6.20;;;;;;;6.07;100.00;99538.70;106052;1264;98630;-80
2023/12/26 02:29:31;;;;;;;17.80;5.90;;;;;;;6.08;100.00;99534.95;105980;1277;101348;-80
2023/12/26 02:32:19;;;;;;;14.40;4.50;;;;;;;6.10;100.00;99527.86;106004;1270;99782;-81
2023/12/26 02:35:06;;;;;;;11.70;4.30;;;;;;;6.10;100.00;99530.24;105906;1270;98622;-79
2023/12/26 02:37:52;;;;;;;13.80;4.70;;;;;;;6.10;100.00;99535.60;105723;1271;97973;-80
2023/12/26 02:40:37;;;;;;;11.80;4.50;;;;;;;6.11;100.00;99539.66;105950;1264;98430;-81
2023/12/26 02:43:26;;;;;;;18.60;4.70;;;;;;;6.12;100.00;99540.89;106002;1264;101390;-81
2023/12/26 02:46:12;;;;;;;8.70;4.30;;;;;;;6.13;100.00;99529.39;105994;1270;99129;-80
2023/12/26 02:48:57;;;;;;;15.80;4.60;;;;;;;6.15;100.00;99524.95;106043;1269;98171;-81
2023/12/26 02:51:43;;;;;;;15.20;5.10;;;;;;;6.16;100.00;99525.00;106176;1267;97889;-80
2023/12/26 02:54:29;;;;;;;11.00;4.50;;;;;;;6.19;100.00;99526.27;106350;1264;96892;-80
2023/12/26 02:57:15;;;;;;;15.40;5.00;;;;;;;6.21;100.00;99519.45;106140;1264;101415;-79
2023/12/26 03:00:00;;;;;;;13.30;5.40;;;;;;;6.23;100.00;99512.61;105874;1264;99608;-81
2023/12/26 03:02:46;;;;;;;14.30;4.50;;;;;;;6.25;100.00;99514.35;105761;1264;99269;-81
2023/12/26 03:05:32;;;;;;;11.50;4.30;;;;;;;6.26;100.00;99514.70;106220;1267;95932;-80
2023/12/26 03:08:17;;;;;;;11.30;4.10;;;;;;;6.28;100.00;99506.55;106350;1264;98518;-81
2023/12/26 03:11:03;;;;;;;13.90;4.80;;;;;;;6.28;100.00;99495.83;106278;1267;102120;-80
2023/12/26 03:13:48;;;;;;;9.80;4.70;;;;;;;6.32;100.00;99495.61;106192;1264;100355;-81
2023/12/26 03:16:34;;;;;;;15.20;6.10;;;;;;;6.35;100.00;99492.84;106571;1264;97919;-80
2023/12/26 03:19:20;;;;;;;15.00;5.40;;;;;;;6.39;100.00;99491.13;106368;1267;97903;-79
2023/12/26 03:22:06;;;;;;;10.80;4.90;;;;;;;6.42;100.00;99487.64;105588;1269;98084;-80
2023/12/26 03:24:52;;;;;;;11.80;5.10;;;;;;;6.43;100.00;99482.82;105601;1264;102428;-80
2023/12/26 03:27:37;;;;;;;19.50;5.90;;;;;;;6.45;100.00;99483.88;105846;1263;99218;-80
2023/12/26 03:30:23;;;;;;;13.60;5.10;;;;;;;6.47;100.00;99477.63;105891;1264;97983;-81
2023/12/26 03:33:08;;;;;;;14.00;3.80;;;;;;;6.48;100.00;99466.96;106347;1264;98727;-81
2023/12/26 03:35:54;;;;;;;14.80;3.90;;;;;;;6.49;100.00;99463.63;106320;1264;98505;-83
2023/12/26 03:38:40;;;;;;;10.40;3.80;;;;;;;6.50;100.00;99453.73;106364;1263;101431;-81
2023/12/26 03:41:25;;;;;;;12.00;4.30;;;;;;;6.52;100.00;99451.44;106434;1263;99087;-81
2023/12/26 03:44:11;;;;;;;9.90;4.00;;;;;;;6.52;100.00;99444.90;106191;1263;97978;-81
2023/12/26 03:46:57;;;;;;;13.80;5.20;;;;;;;6.52;100.00;99441.52;106413;1264;98041;-81
2023/12/26 03:49:42;;;;;;;13.50;5.00;;;;;;;6.51;100.00;99434.47;105976;1269;97918;-80
2023/12/26 03:52:28;;;;;;;11.10;4.60;;;;;;;6.52;100.00;99432.45;105948;1269;101429;-81
2023/12/26 03:55:14;;;;;;;10.20;4.70;;;;;;;6.51;100.00;99423.20;106389;1264;99099;-79
2023/12/26 03:58:01;;;;;;;13.90;4.90;;;;;;;6.50;100.00;99422.09;106309;1269;99621;-80
2023/12/26 04:00:46;;;;;;;12.20;4.70;;;;;;;6.46;100.00;99424.14;105864;1270;97901;-80
2023/12/26 04:03:32;;;;;;;14.00;4.50;;;;;;;6.45;100.00;99422.62;105919;1269;98429;-80
2023/12/26 04:06:18;;;;;;;12.70;4.00;;;;;;;6.46;100.00;99424.55;106313;1264;101368;-80
2023/12/26 04:09:04;;;;;;;11.40;4.60;;;;;;;6.45;100.00;99423.21;106239;1264;100393;-81
2023/12/26 04:11:50;;;;;;;10.50;4.70;;;;;;;6.44;100.00;99417.11;106449;1268;98647;-81
2023/12/26 04:14:36;;;;;;;10.00;3.60;;;;;;;6.43;100.00;99409.28;106176;1264;97892;-81
2023/12/26 04:17:21;;;;;;;10.40;3.50;;;;;;;6.39;100.00;99405.12;106299;1265;98088;-80
2023/12/26 04:20:08;;;;;;;16.00;3.50;;;;;;;6.38;100.00;99398.85;105844;1264;101450;-79
2023/12/26 04:22:54;;;;;;;11.30;4.10;;;;;;;6.39;100.00;99392.36;105773;1263;100581;-81
2023/12/26 04:25:39;;;;;;;15.00;5.00;;;;;;;6.40;100.00;99391.35;105908;1264;98514;-80
2023/12/26 04:28:26;;;;;;;11.90;4.90;;;;;;;6.41;100.00;99387.88;105878;1270;98013;-80
2023/12/26 04:31:11;;;;;;;10.90;4.20;;;;;;;6.41;100.00;99383.79;105860;1269;98517;-80
2023/12/26 04:33:57;;;;;;;9.00;4.20;;;;;;;6.40;100.00;99380.58;106224;1267;101466;-79
2023/12/26 04:36:43;;;;;;;11.20;4.50;;;;;;;6.40;100.00;99372.92;106117;1263;100565;-81
2023/12/26 04:39:29;;;;;;;11.50;5.00;;;;;;;6.40;100.00;99370.30;106284;1264;98997;-81
2023/12/26 04:42:14;;;;;;;13.60;5.10;;;;;;;6.40;100.00;99363.71;106398;1263;95587;-80
2023/12/26 04:45:00;;;;;;;10.70;5.30;;;;;;;6.42;100.00;99362.09;105952;1269;99674;-79
2023/12/26 04:47:46;;;;;;;11.60;6.10;;;;;;;6.42;100.00;99357.96;105885;1264;101453;-80
2023/12/26 04:50:32;;;;;;;12.10;6.10;;;;;;;6.43;100.00;99349.45;106257;1264;99920;-80
2023/12/26 04:53:17;;;;;;;11.60;6.00;;;;;;;6.43;100.00;99343.48;106073;1267;98085;-80
2023/12/26 04:56:03;;;;;;;12.60;6.10;;;;;;;6.43;100.00;99341.52;105655;1264;97938;-79
2023/12/26 04:58:51;;;;;;;12.30;5.40;;;;;;;6.45;100.00;99341.63;105734;1267;97886;-79
2023/12/26 05:01:44;;;;;;;13.00;5.30;;;;;;;6.45;100.00;99335.45;106193;1264;102785;-80
2023/12/26 05:04:30;;;;;;;13.30;6.10;;;;;;;6.44;100.00;99327.70;106117;1264;99269;-81
2023/12/26 05:07:15;;;;;;;11.00;5.80;;;;;;;6.44;100.00;99322.59;106284;1264;97939;-81
2023/12/26 05:10:01;;;;;;;15.40;6.50;;;;;;;6.44;100.00;99316.56;106212;1264;97985;-81
2023/12/26 05:12:46;;;;;;;11.60;6.70;;;;;;;6.44;100.00;99314.05;106300;1264;98020;-81
2023/12/26 05:15:32;;;;;;;14.50;6.20;;;;;;;6.44;100.00;99313.15;106055;1264;101547;-81
2023/12/26 05:18:17;;;;;;;12.20;6.70;;;;;;;6.46;100.00;99309.79;106248;1264;100140;-80
2023/12/26 05:21:03;;;;;;;13.40;6.90;;;;;;;6.47;100.00;99300.60;106107;1267;97927;-81
2023/12/26 05:23:50;;;;;;;11.50;6.40;;;;;;;6.48;100.00;99293.33;106280;1264;97716;-81
2023/12/26 05:26:40;;;;;;;8.50;6.00;;;;;;;6.50;100.00;99291.83;106221;1263;97977;-81
2023/12/26 05:29:26;;;;;;;11.50;6.50;;;;;;;6.54;100.00;99281.84;105915;1264;101374;-80
2023/12/26 05:32:11;;;;;;;10.90;6.80;;;;;;;6.56;100.00;99278.38;105788;1264;99724;-80
2023/12/26 05:34:57;;;;;;;9.30;6.00;;;;;;;6.59;100.00;99275.64;105686;1270;98507;-80
2023/12/26 05:37:45;;;;;;;9.30;6.10;;;;;;;6.62;100.00;99269.79;106209;1269;98845;-80
2023/12/26 05:40:31;;;;;;;9.30;6.10;;;;;;;6.65;100.00;99266.25;106427;1264;98502;-79
2023/12/26 05:43:19;;;;;;;10.40;6.30;;;;;;;6.67;100.00;99265.36;105663;1264;101343;-80
2023/12/26 05:46:05;;;;;;;9.80;5.70;;;;;;;6.70;100.00;99263.45;105957;1266;100433;-80
2023/12/26 05:48:52;;;;;;;5.60;4.70;;;;;;;6.72;100.00;99260.31;106156;1264;98941;-81
2023/12/26 05:51:37;;;;;;;11.10;5.90;;;;;;;6.74;100.00;99257.34;105741;1272;98024;-80
2023/12/26 05:54:22;;;;;;;9.10;4.50;;;;;;;6.76;100.00;99249.98;105560;1270;97892;-81
2023/12/26 05:57:08;;;;;;;11.00;4.60;;;;;;;6.78;100.00;99243.33;105916;1264;103149;-78
2023/12/26 05:59:54;;;;;;;6.90;4.50;;;;;;;6.81;100.00;99239.61;105819;1269;99151;-80
2023/12/26 06:02:40;;;;;;;9.90;4.50;;;;;;;6.83;100.00;99234.18;106197;1264;97924;-79
2023/12/26 06:05:26;;;;;;;9.10;3.70;;;;;;;6.85;100.00;99224.33;105521;1270;98183;-81
2023/12/26 06:08:13;;;;;;;5.10;3.70;;;;;;;6.87;100.00;99214.64;106170;1267;97867;-80
2023/12/26 06:10:59;;;;;;;8.90;4.50;;;;;;;6.91;100.00;99213.30;106295;1264;102716;-80
2023/12/26 06:13:45;;;;;;;6.60;4.10;;;;;;;6.94;100.00;99213.06;106131;1263;99247;-80
2023/12/26 06:16:30;;;;;;;5.50;3.70;;;;;;;6.96;100.00;99208.50;106128;1263;98559;-81
2023/12/26 06:19:15;;;;;;;6.80;3.80;;;;;;;6.99;100.00;99202.85;106414;1267;97890;-80
2023/12/26 06:22:01;;;;;;;6.00;3.60;;;;;;;7.02;100.00;99197.71;106257;1269;97976;-80
2023/12/26 06:24:48;;;;;;;5.70;4.00;;;;;;;7.05;100.00;99191.66;106282;1263;102921;-81
2023/12/26 06:27:36;;;;;;;6.40;3.60;;;;;;;7.08;100.00;99186.06;106248;1263;99781;-81
2023/12/26 06:30:22;;;;;;;5.50;3.70;;;;;;;7.11;100.00;99185.33;106446;1264;97767;-81
2023/12/26 06:33:08;;;;;;;5.60;3.10;;;;;;;7.14;100.00;99182.23;106208;1270;97896;-80
2023/12/26 06:35:53;;;;;;;5.90;4.30;;;;;;;7.17;100.00;99177.67;106258;1264;97844;-79
2023/12/26 06:38:39;;;;;;;8.30;4.70;;;;;;;7.20;100.00;99173.16;106434;1264;102191;-79
2023/12/26 06:41:24;;;;;;;6.00;3.50;;;;;;;7.22;100.00;99172.10;105868;1264;99265;-80
2023/12/26 06:44:10;;;;;;;6.70;3.60;;;;;;;7.25;100.00;99166.83;105752;1269;97911;-80
2023/12/26 06:46:56;;;;;;;4.60;3.70;;;;;;;7.27;100.00;99165.07;105666;1264;98017;-81
2023/12/26 06:49:45;;;;;;;7.70;4.10;;;;;;;7.30;100.00;99165.25;105690;1270;98495;-80
2023/12/26 06:52:31;;;;;;;5.00;4.10;;;;;;;7.32;100.00;99159.98;105783;1264;102688;-80
2023/12/26 06:55:17;;;;;;;6.40;3.80;;;;;;;7.35;100.00;99154.48;105955;1268;99078;-81
2023/12/26 06:58:04;;;;;;;5.70;3.90;;;;;;;7.37;100.00;99152.23;106286;1264;99205;-81
2023/12/26 07:00:49;;;;;;;5.60;3.90;;;;;;;7.39;100.00;99145.94;106159;1270;98048;-81
2023/12/26 07:03:35;;;;;;;5.50;3.70;;;;;;;7.42;100.00;99143.27;106240;1263;97927;-80
2023/12/26 07:06:20;;;;;;;5.00;3.80;;;;;;;7.43;100.00;99143.04;106378;1268;102381;-81
2023/12/26 07:09:05;;;;;;;5.70;4.10;;;;;;;7.46;100.00;99140.16;106419;1263;100343;-81
2023/12/26 07:11:51;;;;;;;5.50;4.30;;;;;;;7.48;100.00;99133.82;106106;1264;98926;-81
2023/12/26 07:14:37;;;;;;;4.80;3.60;;;;;;;7.50;100.00;99130.54;106202;1263;97969;-80
2023/12/26 07:17:23;;;;;;;7.20;4.50;;;;;;;7.53;100.00;99122.05;106303;1264;97989;-80
2023/12/26 07:20:09;;;;;;;6.40;4.10;;;;;;;7.55;100.00;99118.20;106327;1269;101437;-78
2023/12/26 07:22:54;;;;;;;6.10;3.60;;;;;;;7.57;100.00;99116.27;105595;1266;99154;-80
2023/12/26 07:25:43;;;;;;;6.10;3.80;;;;;;;7.59;100.00;99111.20;105753;1267;99020;-80
2023/12/26 07:28:28;;;;;;;5.80;4.30;;;;;;;7.62;100.00;99111.00;106033;1263;97989;-80
2023/12/26 07:31:19;;;;;;;5.60;4.50;;;;;;;7.65;100.00;99107.98;106070;1267;96251;-82
2023/12/26 07:34:08;;;;;;;6.80;4.90;;;;;;;7.67;100.00;99107.84;106497;1264;102300;-81
2023/12/26 07:36:53;;;;;;;6.20;4.00;;;;;;;7.68;100.00;99108.39;105920;1264;99078;-79
2023/12/26 07:39:38;;;;;;;4.60;4.10;;;;;;;7.70;100.00;99106.90;105977;1264;97899;-79
2023/12/26 07:42:24;;;;;;;6.50;4.40;;;;;;;7.72;100.00;99108.02;106364;1265;97929;-81
2023/12/26 07:45:09;;;;;;;6.80;4.70;;;;;;;7.74;100.00;99102.40;105915;1264;98066;-80
2023/12/26 07:47:55;;;;;;;7.50;4.20;;;;;;;7.77;100.00;99101.17;105911;1265;101482;-80
2023/12/26 07:50:41;;;;;;;6.20;4.00;;;;;;;7.80;100.00;99104.64;106248;1267;99312;-80
2023/12/26 07:53:27;;;;;;;5.30;3.20;;;;;;;7.84;100.00;99103.50;106183;1263;97938;-80
2023/12/26 07:56:12;;;;;;;5.10;3.40;;;;;;;7.88;100.00;99101.33;105949;1266;98048;-79
2023/12/26 07:58:57;;;;;;;4.10;3.40;;;;;;;7.93;100.00;99102.23;106473;1263;96690;-79
2023/12/26 08:01:43;;;;;;;5.90;3.70;;;;;;;7.98;100.00;99104.07;105742;1264;102636;-79
2023/12/26 08:04:29;;;;;;;5.90;3.50;;;;;;;8.01;100.00;99102.02;105499;1264;99209;-81
2023/12/26 08:07:14;;;;;;;3.70;3.10;;;;;;;8.04;100.00;99103.90;105682;1270;98696;-81
2023/12/26 08:10:00;;;;;;;4.90;3.20;;;;;;;8.08;100.00;99097.27;106037;1264;98452;-80
2023/12/26 08:12:46;;;;;;;7.90;5.10;;;;;;;8.12;100.00;99094.25;105757;1263;98536;-79
2023/12/26 08:15:32;;;;;;;5.20;4.30;;;;;;;8.17;100.00;99090.76;105740;1264;101945;-80
2023/12/26 08:18:17;;;;;;;4.30;3.10;;;;;;;8.22;100.00;99091.08;105934;1264;100543;-81
2023/12/26 08:21:03;;;;;;;3.50;3.00;;;;;;;8.28;100.00;99092.41;105835;1264;98007;-79
2023/12/26 08:23:49;;;;;;;3.00;2.10;;;;;;;8.34;100.00;99098.88;105472;1264;97985;-78
2023/12/26 08:26:35;;;;;;;2.30;1.80;;;;;;;8.40;100.00;99098.83;105596;1264;98467;-79
2023/12/26 08:29:21;;;;;;;3.80;2.20;;;;;;;8.45;100.00;99096.52;105441;1264;103402;-79
2023/12/26 08:32:07;;;;;;;2.50;2.20;;;;;;;8.52;100.00;99092.92;105591;1264;99141;-80
2023/12/26 08:34:53;;;;;;;4.00;2.70;;;;;;;8.58;100.00;99094.42;105888;1269;97589;-80
2023/12/26 08:37:38;;;;;;;2.10;1.90;;;;;;;8.63;100.00;99093.59;105864;1265;98517;-80
2023/12/26 08:40:24;;;;;;;5.20;3.10;;;;;;;8.68;100.00;99092.50;105796;1264;97897;-81
2023/12/26 08:43:09;;;;;;;4.30;2.90;;;;;;;8.73;100.00;99087.84;105862;1264;102600;-79
2023/12/26 08:45:55;;;;;;;40.90;19.50;;;;;;;8.78;100.00;99087.61;105409;1266;99630;-79
2023/12/26 08:48:41;;;;;;;46.90;22.30;;;;;;;8.84;100.00;99090.95;105267;1268;98392;-79
2023/12/26 08:51:27;;;;;;;25.20;12.80;;;;;;;8.88;100.00;99091.60;105300;1264;97917;-79
2023/12/26 08:54:13;;;;;;;9.70;5.70;;;;;;;8.93;100.00;99089.77;105294;1270;97989;-79
2023/12/26 08:56:58;;;;;;;13.40;12.10;;;;;;;8.98;100.00;99090.16;105172;1270;101334;-79
2023/12/26 08:59:44;;;;;;;12.40;11.10;;;;;;;9.03;100.00;99095.39;105487;1269;99146;-78
2023/12/26 09:02:29;;;;;;;8.30;7.50;;;;;;;9.07;100.00;99094.75;105602;1264;97948;-78
2023/12/26 09:05:15;;;;;;;6.10;5.50;;;;;;;9.11;100.00;99098.35;105483;1263;98531;-78
2023/12/26 09:08:01;;;;;;;6.20;4.70;;;;;;;9.14;100.00;99095.05;105437;1267;98021;-78
2023/12/26 09:10:47;;;;;;;5.10;4.20;;;;;;;9.17;100.00;99093.13;105233;1264;102081;-79
2023/12/26 09:13:32;;;;;;;4.30;3.30;;;;;;;9.21;100.00;99095.61;105287;1264;99133;-78
2023/12/26 09:16:18;;;;;;;4.40;3.30;;;;;;;9.25;100.00;99101.84;105485;1265;98752;-78
2023/12/26 09:19:03;;;;;;;4.80;4.20;;;;;;;9.28;100.00;99105.20;105969;1267;98062;-80
2023/12/26 09:21:49;;;;;;;3.10;2.80;;;;;;;9.31;100.00;99105.59;105987;1268;97898;-80
2023/12/26 09:24:35;;;;;;;3.30;3.00;;;;;;;9.34;100.00;99111.89;105825;1265;101465;-80
2023/12/26 09:27:20;;;;;;;3.90;2.80;;;;;;;9.37;100.00;99113.65;105751;1264;99512;-79
2023/12/26 09:30:09;;;;;;;4.00;3.30;;;;;;;9.40;100.00;99119.77;105657;1269;98599;-79
2023/12/26 09:32:54;;;;;;;3.30;2.70;;;;;;;9.41;100.00;99130.48;105634;1264;97979;-79
2023/12/26 09:35:40;;;;;;;3.00;2.70;;;;;;;9.40;100.00;99142.30;105579;1264;98449;-79
2023/12/26 09:38:25;;;;;;;3.40;2.80;;;;;;;9.41;100.00;99140.96;105699;1264;102542;-78
2023/12/26 09:41:16;;;;;;;6.00;3.40;;;;;;;9.41;100.00;99146.27;105712;1267;99118;-87
2023/12/26 09:44:02;;;;;;;4.20;3.70;;;;;;;9.41;100.00;99148.25;105785;1264;97876;-81
2023/12/26 09:46:47;;;;;;;6.50;4.90;;;;;;;9.41;100.00;99144.92;105863;1266;98132;-82
2023/12/26 09:49:33;;;;;;;4.70;4.30;;;;;;;9.41;100.00;99144.09;105840;1265;98560;-80
2023/12/26 09:52:21;;;;;;;5.40;3.50;;;;;;;9.42;100.00;99146.63;105983;1267;102365;-84
2023/12/26 09:55:09;;;;;;;5.50;4.20;;;;;;;9.44;100.00;99154.27;105829;1264;101707;-88
2023/12/26 09:58:02;;;;;;;5.30;3.10;;;;;;;9.46;100.00;99155.91;106062;1264;100933;-92
2023/12/26 10:00:49;;;;;;;4.10;3.10;;;;;;;9.47;100.00;99164.50;106287;1264;97957;-89
2023/12/26 10:06:30;;;;;;;2.90;2.20;;;;;;;9.51;100.00;99176.35;103947;1266;101769;-81
2023/12/26 10:09:18;;;;;;;4.80;2.60;;;;;;;9.53;100.00;99174.77;106399;1262;100351;-88
2023/12/26 10:12:09;;;;;;;3.80;2.20;;;;;;;9.56;100.00;99178.75;106451;1267;98090;-89
2023/12/26 10:14:59;;;;;;;3.00;2.40;;;;;;;9.57;100.00;99178.80;106306;1264;99363;-81
2023/12/26 10:17:44;;;;;;;3.50;2.30;;;;;;;9.58;100.00;99181.62;106371;1263;97881;-79
2023/12/26 10:20:38;;;;;;;7.50;4.90;;;;;;;9.59;100.00;99178.93;105278;1264;102188;-84
2023/12/26 10:23:24;;;;;;;6.60;4.80;;;;;;;9.59;100.00;99187.27;105546;1264;99236;-84
2023/12/26 10:26:11;;;;;;;8.20;5.40;;;;;;;9.60;100.00;99192.76;105913;1263;99915;-85
2023/12/26 10:28:57;;;;;;;10.90;5.50;;;;;;;9.60;100.00;99198.11;106293;1262;98029;-90
2023/12/26 10:31:43;;;;;;;5.70;4.40;;;;;;;9.60;100.00;99194.30;106299;1263;97678;-90
2023/12/26 10:34:29;;;;;;;4.20;3.10;;;;;;;9.61;100.00;99195.83;106216;1262;101258;-78
2023/12/26 10:37:22;;;;;;;4.50;3.20;;;;;;;9.63;100.00;99195.25;105553;1264;100195;-90
2023/12/26 10:40:09;;;;;;;5.50;4.50;;;;;;;9.64;100.00;99197.55;104750;1273;98465;-77
2023/12/26 10:42:57;;;;;;;7.30;5.80;;;;;;;9.64;100.00;99192.52;104883;1264;97873;-77
2023/12/26 10:45:43;;;;;;;6.60;5.60;;;;;;;9.63;100.00;99194.21;104964;1263;97879;-78
2023/12/26 10:48:33;;;;;;;6.20;4.00;;;;;;;9.64;100.00;99198.29;104799;1263;101343;-75
2023/12/26 10:51:24;;;;;;;4.30;3.40;;;;;;;9.63;100.00;99199.64;104829;1267;99292;-76
2023/12/26 10:54:20;;;;;;;5.20;3.80;;;;;;;9.62;100.00;99200.11;104730;1267;97994;-77
2023/12/26 10:57:08;;;;;;;7.00;4.40;;;;;;;9.62;100.00;99197.85;104802;1267;98015;-77
2023/12/26 10:59:53;;;;;;;6.90;4.70;;;;;;;9.61;100.00;99195.38;106002;1264;97953;-77
2023/12/26 11:02:41;;;;;;;5.30;3.70;;;;;;;9.61;100.00;99201.34;105065;1267;101284;-76
2023/12/26 11:05:28;;;;;;;5.40;4.00;;;;;;;9.61;100.00;99201.91;104988;1263;108832;-77
2023/12/26 11:08:14;;;;;;;5.40;3.10;;;;;;;9.61;100.00;99204.17;105463;1267;98102;-77
2023/12/26 11:10:59;;;;;;;5.70;3.40;;;;;;;9.61;100.00;99201.14;104923;1265;98822;-75
2023/12/26 11:13:47;;;;;;;4.80;3.30;;;;;;;9.61;100.00;99206.82;104747;1263;97903;-77
2023/12/26 11:16:35;;;;;;;5.30;3.40;;;;;;;9.62;100.00;99215.73;104735;1266;101378;-76
2023/12/26 11:19:20;;;;;;;3.80;2.90;;;;;;;9.65;100.00;99205.64;104914;1264;100209;-75
2023/12/26 11:22:06;;;;;;;4.20;2.70;;;;;;;9.66;100.00;99209.33;104955;1265;97895;-76
2023/12/26 11:24:51;;;;;;;4.50;2.60;;;;;;;9.67;100.00;99232.20;104958;1264;98065;-76
2023/12/26 11:27:37;;;;;;;6.10;3.10;;;;;;;9.66;100.00;99244.95;104986;1264;98396;-76
2023/12/26 11:30:23;;;;;;;4.80;3.30;;;;;;;9.66;100.00;99246.48;105006;1262;102392;-77
2023/12/26 11:33:09;;;;;;;9.40;4.10;;;;;;;9.66;100.00;99250.92;104782;1263;100448;-75
2023/12/26 11:35:55;;;;;;;7.00;3.90;;;;;;;9.66;100.00;99257.88;104783;1264;97926;-76
2023/12/26 11:38:41;;;;;;;4.50;2.50;;;;;;;9.66;100.00;99262.10;104765;1264;97981;-77
2023/12/26 11:41:27;;;;;;;4.50;2.50;;;;;;;9.67;100.00;99267.53;104998;1267;98605;-77
2023/12/26 11:44:13;;;;;;;4.50;2.60;;;;;;;9.68;100.00;99272.23;104731;1267;101976;-76
2023/12/26 11:46:58;;;;;;;7.10;4.40;;;;;;;9.69;100.00;99276.48;104668;1267;99064;-76
2023/12/26 11:49:44;;;;;;;5.60;4.10;;;;;;;9.70;100.00;99278.98;104838;1267;98069;-79
2023/12/26 11:52:29;;;;;;;5.10;2.70;;;;;;;9.72;100.00;99285.00;104724;1264;98123;-77
2023/12/26 11:55:15;;;;;;;6.40;3.10;;;;;;;9.74;100.00;99284.11;104781;1267;98497;-76
2023/12/26 11:58:00;;;;;;;4.10;2.60;;;;;;;9.77;100.00;99285.33;104898;1263;102802;-78
2023/12/26 12:00:46;;;;;;;3.40;2.00;;;;;;;9.78;100.00;99284.84;104870;1267;99242;-75
2023/12/26 12:03:32;;;;;;;5.00;2.50;;;;;;;9.78;100.00;99282.32;104703;1267;98003;-75
2023/12/26 12:06:17;;;;;;;13.00;7.50;;;;;;;9.77;100.00;99285.91;104921;1265;98688;-76
2023/12/26 12:09:04;;;;;;;19.10;9.00;;;;;;;9.73;100.00;99289.59;104787;1264;98535;-75
2023/12/26 12:11:50;;;;;;;52.00;17.70;;;;;;;9.71;100.00;99295.40;104804;1264;101333;-76
2023/12/26 12:14:35;;;;;;;42.30;18.30;;;;;;;9.70;100.00;99296.48;104902;1267;99718;-77
2023/12/26 12:17:22;;;;;;;23.50;12.40;;;;;;;9.70;100.00;99298.79;104880;1264;98674;-76
2023/12/26 12:20:16;;;;;;;12.50;6.70;;;;;;;9.70;100.00;99302.31;104988;1267;97988;-77
2023/12/26 12:23:09;;;;;;;11.50;6.80;;;;;;;9.72;100.00;99304.45;104937;1267;97936;-76
2023/12/26 12:26:03;;;;;;;8.80;5.50;;;;;;;9.74;100.00;99305.88;105084;1265;102570;-76
2023/12/26 12:29:01;;;;;;;5.90;2.80;;;;;;;9.77;100.00;99303.93;104704;1270;100352;-75
2023/12/26 12:31:47;;;;;;;8.50;5.40;;;;;;;9.77;100.00;99311.55;104720;1264;98547;-77
2023/12/26 12:34:33;;;;;;;4.90;3.50;;;;;;;9.76;100.00;99308.17;104734;1263;97947;-76
2023/12/26 12:37:18;;;;;;;6.30;5.20;;;;;;;9.75;100.00;99317.36;104762;1263;99174;-77
2023/12/26 12:40:08;;;;;;;4.90;2.70;;;;;;;9.76;100.00;99320.40;104739;1264;103173;-75
2023/12/26 12:42:54;;;;;;;4.70;2.10;;;;;;;9.78;100.00;99328.16;104809;1267;100147;-77
2023/12/26 12:45:39;;;;;;;5.80;3.00;;;;;;;9.77;100.00;99337.86;104753;1263;98056;-76
2023/12/26 12:48:25;;;;;;;4.40;2.70;;;;;;;9.75;100.00;99333.36;104905;1268;97990;-76
2023/12/26 12:51:11;;;;;;;5.70;3.30;;;;;;;9.73;100.00;99340.27;104875;1263;98651;-75